Terminal Aerodrome Forecast
Issued by NWS

Home | Current Version | Previous Version | Text Only | Print | Product List | Glossary On
Versions: 1 2 3 4 5 6 7 8 9 10 11 12 13 14 15 16 17 18 19 20 21 22 23 24 25 26 27 28 29 30 31 32 33 34 35
270
FTUS44 KFWD 182331
TAFGKY
TAF
KGKY 182331Z 1900/1924 13005KT 1SM -DZ BR OVC002
     FM190600 18006KT 1/2SM -DZ FG OVC002
     FM191400 15005KT 1SM -RA BR OVC003
     FM191800 15005KT 2SM SHRA BR VCTS BKN004 OVC015CB
     FM192200 36006KT 3SM TSRA BR BKN004 OVC015CB=

USA.gov is the U.S. government's official web portal to all federal, state and local government web resources and services.